Orbital elements of FENGYUN 1C DEB
| Launched | 9 May 1999 |
| Flight ended | – |
| Launch site | Taiyuan Space Center, PRC |
| Owner | People's Republic of China |
| NORAD ID | 30652 |
| Date fetched |
Epoch osculation |
Inc. [°] |
Ecc. | RA asc node [hr] |
Arg Peri. [°] |
Mean anom [°] |
Mean motion [rev/day] |
Abs. mag |
| Date fetched |
Epoch osculation |
Inc. [°] |
Ecc. | RA asc node [hr] |
Arg Peri. [°] |
Mean anom [°] |
Mean motion [rev/day] |
Abs. mag |
| 2026 May 04 17:57 | 2026 Apr 30 15:23:50 | 98.7645 | 0.00075 | 10.3257 | 229.0262 | 247.1043 | 14.07855 | – |
| 2026 May 03 17:57 | 2026 Apr 30 15:23:50 | 98.7645 | 0.00075 | 10.3257 | 229.0262 | 247.1043 | 14.07855 | – |
| 2026 May 02 17:57 | 2026 Apr 30 15:23:50 | 98.7645 | 0.00075 | 10.3257 | 229.0262 | 247.1043 | 14.07855 | – |
| 2026 May 01 17:56 | 2026 Apr 30 15:23:50 | 98.7645 | 0.00075 | 10.3257 | 229.0262 | 247.1043 | 14.07855 | – |
| 2026 Apr 30 17:56 | 2026 Apr 30 15:23:50 | 98.7645 | 0.00075 | 10.3257 | 229.0262 | 247.1043 | 14.07855 | – |
| 2026 Apr 29 17:57 | 2026 Apr 24 02:02:26 | 98.7656 | 0.00072 | 9.9013 | 249.6207 | 247.1043 | 14.07855 | – |
| 2026 Apr 28 17:56 | 2026 Apr 24 02:02:26 | 98.7656 | 0.00072 | 9.9013 | 249.6207 | 247.1043 | 14.07855 | – |
| 2026 Apr 27 17:58 | 2026 Apr 24 02:02:26 | 98.7656 | 0.00072 | 9.9013 | 249.6207 | 247.1043 | 14.07855 | – |
| 2026 Apr 26 17:58 | 2026 Apr 24 02:02:26 | 98.7656 | 0.00072 | 9.9013 | 249.6207 | 247.1043 | 14.07855 | – |
| 2026 Apr 25 17:58 | 2026 Apr 24 02:02:26 | 98.7656 | 0.00072 | 9.9013 | 249.6207 | 247.1043 | 14.07855 | – |
| 2026 Apr 24 17:59 | 2026 Apr 24 02:02:26 | 98.7656 | 0.00072 | 9.9013 | 249.6207 | 247.1043 | 14.07855 | – |
| 2026 Apr 23 17:57 | 2026 Apr 19 13:29:17 | 98.7664 | 0.00072 | 9.6085 | 264.4927 | 247.1043 | 14.07855 | – |
| 2026 Apr 22 17:57 | 2026 Apr 19 13:29:17 | 98.7664 | 0.00072 | 9.6085 | 264.4927 | 247.1043 | 14.07855 | – |
| 2026 Apr 21 17:57 | 2026 Apr 19 13:29:17 | 98.7664 | 0.00072 | 9.6085 | 264.4927 | 247.1043 | 14.07855 | – |
| 2026 Apr 20 17:57 | 2026 Apr 19 13:29:17 | 98.7664 | 0.00072 | 9.6085 | 264.4927 | 247.1043 | 14.07855 | – |
| 2026 Apr 19 17:58 | 2026 Apr 19 13:29:17 | 98.7664 | 0.00072 | 9.6085 | 264.4927 | 247.1043 | 14.07855 | – |
| 2026 Apr 18 17:56 | 2026 Apr 13 01:40:35 | 98.7673 | 0.00072 | 9.1881 | 285.7914 | 247.1043 | 14.07855 | – |
| 2026 Apr 16 17:57 | 2026 Apr 13 01:40:35 | 98.7673 | 0.00072 | 9.1881 | 285.7914 | 247.1043 | 14.07855 | – |
| 2026 Apr 14 17:57 | 2026 Apr 13 01:40:35 | 98.7673 | 0.00072 | 9.1881 | 285.7914 | 247.1043 | 14.07855 | – |
| 2026 Apr 13 17:57 | 2026 Apr 13 01:40:35 | 98.7673 | 0.00072 | 9.1881 | 285.7914 | 247.1043 | 14.07855 | – |
| 2026 Apr 12 17:57 | 2026 Apr 08 14:40:12 | 98.7681 | 0.00072 | 8.8994 | 300.2815 | 247.1043 | 14.07855 | – |
| 2026 Apr 11 17:57 | 2026 Apr 08 14:40:12 | 98.7681 | 0.00072 | 8.8994 | 300.2815 | 247.1043 | 14.07855 | – |
| 2026 Apr 10 17:58 | 2026 Apr 08 14:40:12 | 98.7681 | 0.00072 | 8.8994 | 300.2815 | 247.1043 | 14.07855 | – |
| 2026 Apr 09 18:01 | 2026 Apr 08 14:40:12 | 98.7681 | 0.00072 | 8.8994 | 300.2815 | 247.1043 | 14.07855 | – |
| 2026 Apr 08 17:57 | 2026 Apr 08 14:40:12 | 98.7681 | 0.00072 | 8.8994 | 300.2815 | 247.1043 | 14.07855 | – |
| 2026 Apr 07 17:57 | 2026 Apr 02 08:02:41 | 98.7692 | 0.00074 | 8.4930 | 320.2218 | 247.1043 | 14.07855 | – |